createdAt,value
2023-03-22T00:02:26.460Z,19.02
2023-03-22T00:04:53.869Z,20.02
2023-03-22T00:07:20.656Z,26.30
2023-03-22T00:09:47.446Z,21.80
2023-03-22T00:12:14.360Z,25.70
2023-03-22T00:14:41.447Z,25.35
2023-03-22T00:17:08.292Z,23.48
2023-03-22T00:19:35.086Z,25.58
2023-03-22T00:22:03.643Z,27.40
2023-03-22T00:24:30.516Z,18.40
2023-03-22T00:26:58.605Z,32.38
2023-03-22T00:29:25.525Z,21.13
2023-03-22T00:31:54.442Z,22.48
2023-03-22T00:34:21.260Z,18.70
2023-03-22T00:36:48.521Z,16.27
2023-03-22T00:39:15.789Z,16.27
2023-03-22T00:41:42.896Z,17.10
2023-03-22T00:44:09.712Z,16.50
2023-03-22T00:46:37.520Z,17.33
2023-03-22T00:49:04.621Z,18.15
2023-03-22T00:51:31.410Z,17.30
2023-03-22T00:53:58.274Z,16.80
2023-03-22T00:56:28.659Z,18.30
2023-03-22T00:58:55.612Z,15.57
2023-03-22T01:01:22.603Z,14.70
2023-03-22T01:03:50.793Z,13.23
2023-03-22T01:06:18.172Z,14.10
2023-03-22T01:08:44.937Z,14.93
2023-03-22T01:11:11.920Z,14.70
2023-03-22T01:13:39.390Z,17.27
2023-03-22T01:16:07.037Z,15.57
2023-03-22T01:18:34.266Z,18.10
2023-03-22T01:21:01.300Z,15.05
2023-03-22T01:23:28.612Z,17.48
2023-03-22T01:25:55.430Z,16.10
2023-03-22T01:28:22.218Z,15.32
2023-03-22T01:30:50.071Z,17.58
2023-03-22T01:33:17.041Z,14.40
2023-03-22T01:35:43.890Z,17.42
2023-03-22T01:38:10.854Z,14.82
2023-03-22T01:40:38.771Z,15.48
2023-03-22T01:43:13.278Z,14.18
2023-03-22T01:45:43.222Z,13.80
2023-03-22T01:48:23.461Z,16.52
2023-03-22T01:51:02.967Z,16.38
2023-03-22T01:53:33.291Z,15.60
2023-03-22T01:56:03.954Z,15.13
2023-03-22T01:58:32.329Z,16.60
2023-03-22T02:00:59.598Z,17.40
2023-03-22T02:03:36.885Z,21.05
2023-03-22T02:06:04.039Z,14.40
2023-03-22T02:08:32.283Z,16.65
2023-03-22T02:11:00.320Z,15.35
2023-03-22T02:13:56.108Z,13.90
2023-03-22T02:16:46.295Z,16.02
2023-03-22T02:19:51.973Z,14.43
2023-03-22T02:22:28.184Z,15.90
2023-03-22T02:25:27.555Z,14.10
2023-03-22T02:28:09.810Z,15.05
2023-03-22T02:30:45.732Z,14.63
2023-03-22T02:33:16.259Z,21.17
2023-03-22T02:36:30.893Z,17.27
2023-03-22T02:39:06.832Z,15.48
2023-03-22T02:41:55.378Z,17.60
2023-03-22T02:44:47.153Z,17.85
2023-03-22T02:47:17.210Z,17.88
2023-03-22T02:49:52.436Z,17.38
2023-03-22T02:52:39.398Z,19.33
2023-03-22T02:55:22.113Z,17.88
2023-03-22T02:57:54.299Z,18.02
2023-03-22T03:00:21.104Z,17.25
2023-03-22T03:02:53.861Z,14.90
2023-03-22T03:05:22.253Z,14.25
2023-03-22T03:07:55.855Z,16.10
2023-03-22T03:10:23.814Z,17.65
2023-03-22T03:12:50.620Z,16.60
2023-03-22T03:15:19.854Z,16.85
2023-03-22T03:17:49.656Z,16.00
2023-03-22T03:20:30.275Z,13.95
2023-03-22T03:23:39.959Z,14.43
2023-03-22T03:26:13.581Z,15.35
2023-03-22T03:29:09.868Z,17.70
2023-03-22T03:31:49.417Z,18.75
2023-03-22T03:34:20.268Z,17.25
2023-03-22T03:37:02.951Z,19.15
2023-03-22T03:39:35.733Z,20.10
2023-03-22T03:42:04.833Z,22.08
2023-03-22T03:44:32.659Z,16.10
2023-03-22T03:47:02.182Z,21.63
2023-03-22T03:49:29.148Z,15.35
2023-03-22T03:51:56.445Z,17.83
2023-03-22T03:54:23.601Z,17.13
2023-03-22T03:56:50.950Z,15.35
2023-03-22T03:59:18.898Z,16.15
2023-03-22T04:01:50.352Z,18.10
2023-03-22T04:04:26.669Z,20.27
2023-03-22T04:07:02.106Z,20.40
2023-03-22T04:09:31.913Z,19.77
2023-03-22T04:11:59.099Z,20.30
2023-03-22T04:14:26.553Z,21.83
2023-03-22T04:16:55.681Z,23.00
2023-03-22T04:19:23.190Z,20.83
2023-03-22T04:21:50.016Z,21.48
2023-03-22T04:24:16.843Z,21.15
2023-03-22T04:26:43.716Z,23.23
2023-03-22T04:29:10.544Z,19.23
2023-03-22T04:31:37.737Z,27.42
2023-03-22T04:34:05.773Z,21.70
2023-03-22T04:36:36.594Z,23.65
2023-03-22T04:39:06.019Z,21.20
2023-03-22T04:41:33.975Z,21.70
2023-03-22T04:44:03.320Z,27.42
2023-03-22T04:46:31.899Z,23.27
2023-03-22T04:48:58.905Z,29.35
2023-03-22T04:51:27.666Z,17.85
2023-03-22T04:53:54.660Z,20.77
2023-03-22T04:56:22.212Z,19.92
2023-03-22T04:58:49.015Z,21.38
2023-03-22T05:01:18.008Z,21.88
2023-03-22T05:03:47.367Z,28.27
2023-03-22T05:06:15.290Z,23.13
2023-03-22T05:08:42.124Z,21.73
2023-03-22T05:11:12.549Z,23.77
2023-03-22T05:13:40.245Z,24.95
2023-03-22T05:16:08.116Z,22.85
2023-03-22T05:18:38.030Z,27.00
2023-03-22T05:21:06.829Z,24.00
2023-03-22T05:23:33.629Z,27.63
2023-03-22T05:26:01.922Z,30.85
2023-03-22T05:28:28.847Z,28.15
2023-03-22T05:30:57.227Z,25.70
2023-03-22T05:33:24.250Z,25.75
2023-03-22T05:35:51.897Z,29.58
2023-03-22T05:38:18.750Z,27.90
2023-03-22T05:40:46.392Z,26.77
2023-03-22T05:43:13.532Z,25.80
2023-03-22T05:45:40.380Z,24.42
2023-03-22T05:48:07.575Z,24.97
2023-03-22T05:50:35.383Z,23.63
2023-03-22T05:53:03.467Z,27.07
2023-03-22T05:55:32.128Z,27.23
2023-03-22T05:58:01.393Z,21.07
2023-03-22T06:00:32.167Z,21.43
2023-03-22T06:03:03.509Z,22.27
2023-03-22T06:05:31.946Z,23.70
2023-03-22T06:07:59.182Z,25.67
2023-03-22T06:10:27.192Z,26.10
2023-03-22T06:12:54.289Z,23.63
2023-03-22T06:15:21.448Z,24.30
2023-03-22T06:17:48.630Z,23.97
2023-03-22T06:20:15.683Z,23.83
2023-03-22T06:22:42.881Z,23.63
2023-03-22T06:25:10.658Z,21.00
2023-03-22T06:27:37.939Z,18.93
2023-03-22T06:30:06.012Z,23.10
2023-03-22T06:32:32.863Z,26.13
2023-03-22T06:34:59.606Z,19.17
2023-03-22T06:37:26.429Z,23.40
2023-03-22T06:39:53.270Z,21.43
2023-03-22T06:42:20.329Z,22.07
2023-03-22T06:44:47.164Z,19.57
2023-03-22T06:47:14.166Z,24.50
2023-03-22T06:49:41.032Z,19.60
2023-03-22T06:52:07.898Z,22.20
2023-03-22T06:54:34.981Z,19.70
2023-03-22T06:57:01.844Z,21.73
2023-03-22T06:59:28.879Z,19.50
2023-03-22T07:01:55.844Z,20.50
2023-03-22T07:04:22.925Z,18.17
2023-03-22T07:06:49.727Z,19.60
2023-03-22T07:09:16.980Z,15.50
2023-03-22T07:11:44.000Z,17.80
2023-03-22T07:14:11.086Z,25.00
2023-03-22T07:16:37.859Z,17.00
2023-03-22T07:19:04.699Z,14.83
2023-03-22T07:21:31.602Z,16.50
2023-03-22T07:23:58.412Z,16.30
2023-03-22T07:26:26.318Z,14.50
2023-03-22T07:28:53.770Z,15.47
2023-03-22T07:31:21.412Z,20.50
2023-03-22T07:33:48.444Z,24.37
2023-03-22T07:36:15.624Z,15.17
2023-03-22T07:38:42.552Z,13.67
2023-03-22T07:41:09.491Z,18.17
2023-03-22T07:43:50.857Z,15.90
2023-03-22T07:46:20.189Z,17.07
2023-03-22T07:48:47.060Z,15.37
2023-03-22T07:51:13.994Z,16.57
2023-03-22T07:53:40.817Z,14.77
2023-03-22T07:56:08.134Z,17.63
2023-03-22T07:58:35.539Z,18.37
2023-03-22T08:01:09.063Z,14.00
2023-03-22T08:03:36.764Z,19.60
2023-03-22T08:06:07.658Z,15.00
2023-03-22T08:08:36.934Z,15.93
2023-03-22T08:11:05.642Z,14.90
2023-03-22T08:13:32.767Z,15.90
2023-03-22T08:16:00.892Z,19.70
2023-03-22T08:18:27.767Z,12.33
2023-03-22T08:20:59.535Z,14.03
2023-03-22T08:23:40.566Z,17.00
2023-03-22T08:26:09.212Z,13.53
2023-03-22T08:28:36.318Z,14.43
2023-03-22T08:31:13.241Z,11.90
2023-03-22T08:33:41.082Z,16.77
2023-03-22T08:36:10.730Z,12.23
2023-03-22T08:38:37.765Z,13.43
2023-03-22T08:41:04.785Z,17.67
2023-03-22T08:43:31.610Z,12.50
2023-03-22T08:45:58.967Z,12.17
2023-03-22T08:48:29.091Z,14.10
2023-03-22T08:50:56.112Z,16.20
2023-03-22T08:53:23.314Z,14.33
2023-03-22T08:55:51.020Z,15.40
2023-03-22T08:58:20.072Z,14.97
2023-03-22T09:00:49.405Z,17.77
2023-03-22T09:03:17.117Z,15.60
2023-03-22T09:05:44.344Z,15.23
2023-03-22T09:08:18.592Z,10.33
2023-03-22T09:10:52.034Z,14.53
2023-03-22T09:13:20.413Z,11.20
2023-03-22T09:15:47.704Z,16.27
2023-03-22T09:18:15.300Z,21.27
2023-03-22T09:20:43.783Z,17.90
2023-03-22T09:23:10.639Z,14.00
2023-03-22T09:25:37.804Z,12.73
2023-03-22T09:28:05.489Z,13.23
2023-03-22T09:30:32.292Z,15.53
2023-03-22T09:32:59.080Z,14.83
2023-03-22T09:35:26.040Z,13.40
2023-03-22T09:37:54.667Z,12.10
2023-03-22T09:40:25.410Z,11.50
2023-03-22T09:42:55.662Z,12.50
2023-03-22T09:45:32.951Z,18.20
2023-03-22T09:48:00.543Z,11.30
2023-03-22T09:50:31.344Z,15.40
2023-03-22T09:52:59.308Z,13.63
2023-03-22T09:55:43.480Z,13.07
2023-03-22T09:58:32.072Z,12.60
2023-03-22T10:01:06.723Z,12.47
2023-03-22T10:03:59.927Z,12.70
2023-03-22T10:06:29.450Z,15.13
2023-03-22T10:09:19.504Z,14.33
2023-03-22T10:11:55.841Z,13.97
2023-03-22T10:14:47.942Z,15.07
2023-03-22T10:17:27.100Z,12.37
2023-03-22T10:20:09.081Z,11.97
2023-03-22T10:22:42.768Z,11.07
2023-03-22T10:25:12.213Z,13.03
2023-03-22T10:27:39.035Z,12.70
2023-03-22T10:30:23.051Z,15.40
2023-03-22T10:33:04.725Z,14.07
2023-03-22T10:35:32.253Z,12.97
2023-03-22T10:38:03.646Z,13.33
2023-03-22T10:40:33.474Z,11.90
2023-03-22T10:43:06.172Z,12.50
2023-03-22T10:45:35.113Z,13.70
2023-03-22T10:48:16.276Z,20.50
2023-03-22T10:50:48.720Z,14.63
2023-03-22T10:53:44.143Z,12.50
2023-03-22T10:56:20.125Z,13.00
2023-03-22T10:58:49.445Z,12.50
2023-03-22T11:01:33.060Z,13.50
2023-03-22T11:04:10.752Z,12.20
2023-03-22T11:06:54.725Z,12.33
2023-03-22T11:09:24.510Z,13.07
2023-03-22T11:11:57.736Z,13.33
2023-03-22T11:14:35.406Z,14.33
2023-03-22T11:17:08.611Z,15.03
2023-03-22T11:19:38.216Z,13.00
2023-03-22T11:22:25.635Z,12.80
2023-03-22T11:24:55.151Z,11.47
2023-03-22T11:27:24.357Z,13.20
2023-03-22T11:29:53.716Z,12.10
2023-03-22T11:32:35.535Z,12.87
2023-03-22T11:35:22.092Z,11.20
2023-03-22T11:37:52.050Z,11.47
2023-03-22T11:40:29.167Z,11.90
2023-03-22T11:43:07.124Z,14.63
2023-03-22T11:45:37.606Z,14.60
2023-03-22T11:48:14.261Z,12.40
2023-03-22T11:50:45.881Z,12.90
2023-03-22T11:53:18.308Z,11.27
2023-03-22T11:55:47.562Z,12.23
2023-03-22T11:58:43.752Z,13.30
2023-03-22T12:01:16.729Z,11.80
2023-03-22T12:03:47.084Z,13.63
2023-03-22T12:06:22.932Z,11.73
2023-03-22T12:08:55.319Z,14.10
2023-03-22T12:11:31.922Z,12.00
2023-03-22T12:14:00.593Z,13.30
2023-03-22T12:16:32.144Z,12.60
2023-03-22T12:19:08.273Z,13.47
2023-03-22T12:21:35.430Z,12.17
2023-03-22T12:24:03.848Z,12.37
2023-03-22T12:26:33.372Z,11.50
2023-03-22T12:29:16.788Z,17.43
2023-03-22T12:32:09.943Z,11.73
2023-03-22T12:34:42.023Z,14.50
2023-03-22T12:37:15.024Z,12.50
2023-03-22T12:40:14.770Z,14.23
2023-03-22T12:42:51.851Z,13.83
2023-03-22T12:45:26.315Z,12.00
2023-03-22T12:48:05.542Z,12.90
2023-03-22T12:50:51.442Z,11.90
2023-03-22T12:53:20.449Z,12.30
2023-03-22T12:55:48.507Z,13.10
2023-03-22T12:58:21.203Z,14.70
2023-03-22T13:00:58.711Z,14.67
2023-03-22T13:03:28.801Z,16.90
2023-03-22T13:06:27.379Z,14.93
2023-03-22T13:09:16.137Z,12.60
2023-03-22T13:11:45.700Z,11.73
2023-03-22T13:14:39.787Z,11.27
2023-03-22T13:17:07.731Z,26.87
2023-03-22T13:19:37.661Z,13.97
2023-03-22T13:22:21.140Z,11.90
2023-03-22T13:25:23.657Z,10.67
2023-03-22T13:27:52.707Z,11.00
2023-03-22T13:30:33.289Z,12.90
2023-03-22T13:33:08.854Z,12.43
2023-03-22T13:35:42.723Z,13.10
2023-03-22T13:38:26.232Z,12.03
2023-03-22T13:40:56.523Z,15.27
2023-03-22T13:43:32.041Z,11.17
2023-03-22T13:46:01.910Z,11.97
2023-03-22T13:48:50.705Z,12.53
2023-03-22T13:51:26.467Z,14.33
2023-03-22T13:54:12.632Z,14.40
2023-03-22T13:56:43.051Z,11.77
2023-03-22T13:59:29.995Z,10.33
2023-03-22T14:02:18.701Z,12.43
2023-03-22T14:04:56.413Z,10.90
2023-03-22T14:07:37.576Z,11.33
2023-03-22T14:10:18.387Z,12.50
2023-03-22T14:12:58.236Z,11.53
2023-03-22T14:15:31.510Z,10.77
2023-03-22T14:18:08.177Z,14.00
2023-03-22T14:20:37.578Z,15.63
